sensor_id;sensor_type;location;lat;lon;timestamp;P1;durP1;ratioP1;P2;durP2;ratioP2
11598;SDS011;5855;48.840;9.188;2023-06-10T00:00:22;7.75;;;7.00;;
11598;SDS011;5855;48.840;9.188;2023-06-10T00:02:49;9.80;;;6.95;;
11598;SDS011;5855;48.840;9.188;2023-06-10T00:05:16;8.18;;;6.90;;
11598;SDS011;5855;48.840;9.188;2023-06-10T00:07:46;7.80;;;7.00;;
11598;SDS011;5855;48.840;9.188;2023-06-10T00:10:13;7.55;;;6.82;;
11598;SDS011;5855;48.840;9.188;2023-06-10T00:12:40;8.10;;;7.30;;
11598;SDS011;5855;48.840;9.188;2023-06-10T00:15:09;8.13;;;7.32;;
11598;SDS011;5855;48.840;9.188;2023-06-10T00:17:37;8.77;;;7.88;;
11598;SDS011;5855;48.840;9.188;2023-06-10T00:20:07;8.18;;;7.28;;
11598;SDS011;5855;48.840;9.188;2023-06-10T00:22:35;8.02;;;7.22;;
11598;SDS011;5855;48.840;9.188;2023-06-10T00:25:03;8.90;;;7.03;;
11598;SDS011;5855;48.840;9.188;2023-06-10T00:27:30;8.10;;;7.30;;
11598;SDS011;5855;48.840;9.188;2023-06-10T00:30:00;8.80;;;7.88;;
11598;SDS011;5855;48.840;9.188;2023-06-10T00:32:27;7.78;;;7.07;;
11598;SDS011;5855;48.840;9.188;2023-06-10T00:34:55;7.78;;;7.03;;
11598;SDS011;5855;48.840;9.188;2023-06-10T00:37:22;10.77;;;8.07;;
11598;SDS011;5855;48.840;9.188;2023-06-10T00:39:49;8.70;;;7.82;;
11598;SDS011;5855;48.840;9.188;2023-06-10T00:42:16;8.75;;;7.68;;
11598;SDS011;5855;48.840;9.188;2023-06-10T00:44:43;8.23;;;7.43;;
11598;SDS011;5855;48.840;9.188;2023-06-10T00:47:10;7.90;;;7.20;;
11598;SDS011;5855;48.840;9.188;2023-06-10T00:49:37;7.63;;;6.93;;
11598;SDS011;5855;48.840;9.188;2023-06-10T00:52:05;8.65;;;7.00;;
11598;SDS011;5855;48.840;9.188;2023-06-10T00:54:35;8.30;;;7.15;;
11598;SDS011;5855;48.840;9.188;2023-06-10T00:57:02;8.68;;;7.85;;
11598;SDS011;5855;48.840;9.188;2023-06-10T00:59:30;9.45;;;7.65;;
11598;SDS011;5855;48.840;9.188;2023-06-10T01:01:58;9.35;;;7.78;;
11598;SDS011;5855;48.840;9.188;2023-06-10T01:04:25;8.15;;;7.43;;
11598;SDS011;5855;48.840;9.188;2023-06-10T01:06:54;8.60;;;7.85;;
11598;SDS011;5855;48.840;9.188;2023-06-10T01:09:32;9.00;;;8.10;;
11598;SDS011;5855;48.840;9.188;2023-06-10T01:12:05;9.25;;;8.35;;
11598;SDS011;5855;48.840;9.188;2023-06-10T01:14:37;9.10;;;8.18;;
11598;SDS011;5855;48.840;9.188;2023-06-10T01:17:09;9.85;;;8.70;;
11598;SDS011;5855;48.840;9.188;2023-06-10T01:19:37;12.57;;;9.27;;
11598;SDS011;5855;48.840;9.188;2023-06-10T01:22:07;9.10;;;7.68;;
11598;SDS011;5855;48.840;9.188;2023-06-10T01:24:35;8.77;;;7.97;;
11598;SDS011;5855;48.840;9.188;2023-06-10T01:27:05;9.20;;;8.23;;
11598;SDS011;5855;48.840;9.188;2023-06-10T01:29:40;8.13;;;7.32;;
11598;SDS011;5855;48.840;9.188;2023-06-10T01:32:12;8.30;;;7.50;;
11598;SDS011;5855;48.840;9.188;2023-06-10T01:34:43;8.00;;;7.20;;
11598;SDS011;5855;48.840;9.188;2023-06-10T01:37:13;8.25;;;7.45;;
11598;SDS011;5855;48.840;9.188;2023-06-10T01:39:43;8.35;;;7.53;;
11598;SDS011;5855;48.840;9.188;2023-06-10T01:42:12;8.52;;;7.72;;
11598;SDS011;5855;48.840;9.188;2023-06-10T01:44:40;9.10;;;8.13;;
11598;SDS011;5855;48.840;9.188;2023-06-10T01:47:07;10.15;;;8.98;;
11598;SDS011;5855;48.840;9.188;2023-06-10T01:49:34;9.18;;;8.38;;
11598;SDS011;5855;48.840;9.188;2023-06-10T01:52:01;9.32;;;8.43;;
11598;SDS011;5855;48.840;9.188;2023-06-10T01:54:29;9.13;;;8.07;;
11598;SDS011;5855;48.840;9.188;2023-06-10T01:56:56;9.05;;;8.05;;
11598;SDS011;5855;48.840;9.188;2023-06-10T01:59:23;8.40;;;7.60;;
11598;SDS011;5855;48.840;9.188;2023-06-10T02:01:49;11.18;;;8.00;;
11598;SDS011;5855;48.840;9.188;2023-06-10T02:04:16;7.72;;;7.03;;
11598;SDS011;5855;48.840;9.188;2023-06-10T02:06:43;9.27;;;7.75;;
11598;SDS011;5855;48.840;9.188;2023-06-10T02:09:11;7.88;;;7.13;;
11598;SDS011;5855;48.840;9.188;2023-06-10T02:11:39;8.32;;;7.60;;
11598;SDS011;5855;48.840;9.188;2023-06-10T02:14:06;8.98;;;7.03;;
11598;SDS011;5855;48.840;9.188;2023-06-10T02:16:32;7.75;;;7.05;;
11598;SDS011;5855;48.840;9.188;2023-06-10T02:18:59;7.93;;;7.22;;
11598;SDS011;5855;48.840;9.188;2023-06-10T02:21:27;8.60;;;7.80;;
11598;SDS011;5855;48.840;9.188;2023-06-10T02:23:54;8.27;;;7.47;;
11598;SDS011;5855;48.840;9.188;2023-06-10T02:26:21;8.18;;;7.47;;
11598;SDS011;5855;48.840;9.188;2023-06-10T02:28:49;8.23;;;7.43;;
11598;SDS011;5855;48.840;9.188;2023-06-10T02:31:16;8.88;;;7.97;;
11598;SDS011;5855;48.840;9.188;2023-06-10T02:33:44;9.05;;;8.15;;
11598;SDS011;5855;48.840;9.188;2023-06-10T02:36:11;9.00;;;7.82;;
11598;SDS011;5855;48.840;9.188;2023-06-10T02:38:42;9.38;;;7.80;;
11598;SDS011;5855;48.840;9.188;2023-06-10T02:41:08;8.48;;;7.68;;
11598;SDS011;5855;48.840;9.188;2023-06-10T02:43:35;8.88;;;8.07;;
11598;SDS011;5855;48.840;9.188;2023-06-10T02:46:03;10.48;;;8.07;;
11598;SDS011;5855;48.840;9.188;2023-06-10T02:48:30;8.68;;;7.88;;
11598;SDS011;5855;48.840;9.188;2023-06-10T02:50:57;8.73;;;7.93;;
11598;SDS011;5855;48.840;9.188;2023-06-10T02:53:24;9.45;;;8.52;;
11598;SDS011;5855;48.840;9.188;2023-06-10T02:55:51;9.18;;;8.25;;
11598;SDS011;5855;48.840;9.188;2023-06-10T02:58:18;8.38;;;7.53;;
11598;SDS011;5855;48.840;9.188;2023-06-10T03:00:45;9.05;;;8.15;;
11598;SDS011;5855;48.840;9.188;2023-06-10T03:03:13;8.43;;;7.63;;
11598;SDS011;5855;48.840;9.188;2023-06-10T03:05:41;9.63;;;8.27;;
11598;SDS011;5855;48.840;9.188;2023-06-10T03:08:08;9.23;;;7.97;;
11598;SDS011;5855;48.840;9.188;2023-06-10T03:10:34;9.88;;;7.78;;
11598;SDS011;5855;48.840;9.188;2023-06-10T03:13:01;9.05;;;8.25;;
11598;SDS011;5855;48.840;9.188;2023-06-10T03:15:28;8.68;;;7.88;;
11598;SDS011;5855;48.840;9.188;2023-06-10T03:17:57;8.45;;;7.75;;
11598;SDS011;5855;48.840;9.188;2023-06-10T03:20:26;9.27;;;8.00;;
11598;SDS011;5855;48.840;9.188;2023-06-10T03:22:53;8.88;;;8.02;;
11598;SDS011;5855;48.840;9.188;2023-06-10T03:25:20;8.90;;;8.00;;
11598;SDS011;5855;48.840;9.188;2023-06-10T03:27:47;8.70;;;7.80;;
11598;SDS011;5855;48.840;9.188;2023-06-10T03:30:14;8.20;;;7.50;;
11598;SDS011;5855;48.840;9.188;2023-06-10T03:32:40;9.32;;;8.43;;
11598;SDS011;5855;48.840;9.188;2023-06-10T03:35:08;8.50;;;7.70;;
11598;SDS011;5855;48.840;9.188;2023-06-10T03:37:36;8.98;;;8.07;;
11598;SDS011;5855;48.840;9.188;2023-06-10T03:40:03;8.52;;;7.55;;
11598;SDS011;5855;48.840;9.188;2023-06-10T03:42:31;8.57;;;7.60;;
11598;SDS011;5855;48.840;9.188;2023-06-10T03:44:58;8.40;;;7.53;;
11598;SDS011;5855;48.840;9.188;2023-06-10T03:47:25;8.73;;;7.82;;
11598;SDS011;5855;48.840;9.188;2023-06-10T03:49:52;8.48;;;7.68;;
11598;SDS011;5855;48.840;9.188;2023-06-10T03:52:19;8.40;;;7.65;;
11598;SDS011;5855;48.840;9.188;2023-06-10T03:54:47;8.70;;;7.90;;
11598;SDS011;5855;48.840;9.188;2023-06-10T03:57:14;10.20;;;8.07;;
11598;SDS011;5855;48.840;9.188;2023-06-10T03:59:40;9.50;;;8.48;;
11598;SDS011;5855;48.840;9.188;2023-06-10T04:02:07;9.02;;;8.23;;
11598;SDS011;5855;48.840;9.188;2023-06-10T04:04:34;8.57;;;7.43;;
11598;SDS011;5855;48.840;9.188;2023-06-10T04:07:02;8.05;;;7.40;;
11598;SDS011;5855;48.840;9.188;2023-06-10T04:09:29;8.50;;;7.70;;
11598;SDS011;5855;48.840;9.188;2023-06-10T04:11:58;9.55;;;7.70;;
11598;SDS011;5855;48.840;9.188;2023-06-10T04:14:25;8.40;;;7.55;;
11598;SDS011;5855;48.840;9.188;2023-06-10T04:16:52;9.10;;;7.68;;
11598;SDS011;5855;48.840;9.188;2023-06-10T04:19:19;8.32;;;7.25;;
11598;SDS011;5855;48.840;9.188;2023-06-10T04:21:46;8.52;;;7.70;;
11598;SDS011;5855;48.840;9.188;2023-06-10T04:24:13;7.60;;;6.90;;
11598;SDS011;5855;48.840;9.188;2023-06-10T04:26:40;8.15;;;7.38;;
11598;SDS011;5855;48.840;9.188;2023-06-10T04:29:08;8.80;;;7.00;;
11598;SDS011;5855;48.840;9.188;2023-06-10T04:31:34;8.30;;;7.50;;
11598;SDS011;5855;48.840;9.188;2023-06-10T04:34:01;7.95;;;7.25;;
11598;SDS011;5855;48.840;9.188;2023-06-10T04:36:28;7.47;;;6.78;;
11598;SDS011;5855;48.840;9.188;2023-06-10T04:38:55;7.75;;;7.05;;
11598;SDS011;5855;48.840;9.188;2023-06-10T04:41:22;7.90;;;7.20;;
11598;SDS011;5855;48.840;9.188;2023-06-10T04:43:49;7.43;;;6.78;;
11598;SDS011;5855;48.840;9.188;2023-06-10T04:46:17;8.23;;;7.25;;
11598;SDS011;5855;48.840;9.188;2023-06-10T04:48:44;7.65;;;6.95;;
11598;SDS011;5855;48.840;9.188;2023-06-10T04:51:12;7.50;;;6.80;;
11598;SDS011;5855;48.840;9.188;2023-06-10T04:53:39;7.72;;;7.00;;
11598;SDS011;5855;48.840;9.188;2023-06-10T04:56:06;7.75;;;7.05;;
11598;SDS011;5855;48.840;9.188;2023-06-10T04:58:34;8.90;;;7.47;;
11598;SDS011;5855;48.840;9.188;2023-06-10T05:01:00;7.70;;;7.10;;
11598;SDS011;5855;48.840;9.188;2023-06-10T05:03:29;8.48;;;7.60;;
11598;SDS011;5855;48.840;9.188;2023-06-10T05:05:56;8.68;;;7.93;;
11598;SDS011;5855;48.840;9.188;2023-06-10T05:08:22;8.60;;;7.78;;
11598;SDS011;5855;48.840;9.188;2023-06-10T05:10:49;8.52;;;7.72;;
11598;SDS011;5855;48.840;9.188;2023-06-10T05:13:16;7.63;;;7.00;;
11598;SDS011;5855;48.840;9.188;2023-06-10T05:15:43;8.05;;;7.35;;
11598;SDS011;5855;48.840;9.188;2023-06-10T05:18:11;8.00;;;7.28;;
11598;SDS011;5855;48.840;9.188;2023-06-10T05:20:40;7.50;;;6.80;;
11598;SDS011;5855;48.840;9.188;2023-06-10T05:23:07;6.57;;;6.07;;
11598;SDS011;5855;48.840;9.188;2023-06-10T05:25:33;6.57;;;5.97;;
11598;SDS011;5855;48.840;9.188;2023-06-10T05:28:01;6.78;;;6.10;;
11598;SDS011;5855;48.840;9.188;2023-06-10T05:30:28;6.20;;;5.70;;
11598;SDS011;5855;48.840;9.188;2023-06-10T05:32:54;6.38;;;5.88;;
11598;SDS011;5855;48.840;9.188;2023-06-10T05:35:21;6.30;;;5.72;;
11598;SDS011;5855;48.840;9.188;2023-06-10T05:37:50;7.47;;;5.85;;
11598;SDS011;5855;48.840;9.188;2023-06-10T05:40:16;7.03;;;6.25;;
11598;SDS011;5855;48.840;9.188;2023-06-10T05:42:43;5.78;;;5.13;;
11598;SDS011;5855;48.840;9.188;2023-06-10T05:45:10;6.05;;;5.22;;
11598;SDS011;5855;48.840;9.188;2023-06-10T05:47:37;5.38;;;4.93;;
11598;SDS011;5855;48.840;9.188;2023-06-10T05:50:05;5.28;;;4.88;;
11598;SDS011;5855;48.840;9.188;2023-06-10T05:52:33;5.30;;;4.80;;
11598;SDS011;5855;48.840;9.188;2023-06-10T05:55:01;5.35;;;4.85;;
11598;SDS011;5855;48.840;9.188;2023-06-10T05:57:28;5.90;;;4.90;;
11598;SDS011;5855;48.840;9.188;2023-06-10T05:59:55;5.45;;;4.95;;
11598;SDS011;5855;48.840;9.188;2023-06-10T06:02:22;5.55;;;5.00;;
11598;SDS011;5855;48.840;9.188;2023-06-10T06:04:49;5.43;;;4.93;;
11598;SDS011;5855;48.840;9.188;2023-06-10T06:07:16;5.43;;;4.93;;
11598;SDS011;5855;48.840;9.188;2023-06-10T06:09:45;5.50;;;4.78;;
11598;SDS011;5855;48.840;9.188;2023-06-10T06:12:13;4.72;;;4.35;;
11598;SDS011;5855;48.840;9.188;2023-06-10T06:14:40;5.00;;;4.60;;
11598;SDS011;5855;48.840;9.188;2023-06-10T06:17:07;4.50;;;4.20;;
11598;SDS011;5855;48.840;9.188;2023-06-10T06:19:34;5.30;;;4.43;;
11598;SDS011;5855;48.840;9.188;2023-06-10T06:22:01;5.40;;;4.90;;
11598;SDS011;5855;48.840;9.188;2023-06-10T06:24:28;5.10;;;4.70;;
11598;SDS011;5855;48.840;9.188;2023-06-10T06:26:54;5.00;;;4.50;;
11598;SDS011;5855;48.840;9.188;2023-06-10T06:29:23;4.90;;;4.50;;
11598;SDS011;5855;48.840;9.188;2023-06-10T06:31:49;5.95;;;4.50;;
11598;SDS011;5855;48.840;9.188;2023-06-10T06:34:16;7.10;;;4.75;;
11598;SDS011;5855;48.840;9.188;2023-06-10T06:36:43;5.43;;;4.93;;
11598;SDS011;5855;48.840;9.188;2023-06-10T06:39:10;5.15;;;4.72;;
11598;SDS011;5855;48.840;9.188;2023-06-10T06:41:36;4.82;;;4.40;;
11598;SDS011;5855;48.840;9.188;2023-06-10T06:44:03;5.20;;;4.32;;
11598;SDS011;5855;48.840;9.188;2023-06-10T06:46:32;5.05;;;4.53;;
11598;SDS011;5855;48.840;9.188;2023-06-10T06:48:59;4.88;;;4.47;;
11598;SDS011;5855;48.840;9.188;2023-06-10T06:51:25;4.93;;;4.53;;
11598;SDS011;5855;48.840;9.188;2023-06-10T06:53:52;5.07;;;4.68;;
11598;SDS011;5855;48.840;9.188;2023-06-10T06:56:21;4.68;;;4.28;;
11598;SDS011;5855;48.840;9.188;2023-06-10T06:58:48;5.45;;;4.53;;
11598;SDS011;5855;48.840;9.188;2023-06-10T07:01:15;4.90;;;4.50;;
11598;SDS011;5855;48.840;9.188;2023-06-10T07:03:43;5.20;;;4.72;;
11598;SDS011;5855;48.840;9.188;2023-06-10T07:06:10;4.85;;;4.38;;
11598;SDS011;5855;48.840;9.188;2023-06-10T07:08:38;5.78;;;4.38;;
11598;SDS011;5855;48.840;9.188;2023-06-10T07:11:05;4.50;;;4.10;;
11598;SDS011;5855;48.840;9.188;2023-06-10T07:13:31;4.72;;;4.32;;
11598;SDS011;5855;48.840;9.188;2023-06-10T07:15:58;5.28;;;4.03;;
11598;SDS011;5855;48.840;9.188;2023-06-10T07:18:25;4.55;;;4.05;;
11598;SDS011;5855;48.840;9.188;2023-06-10T07:20:53;4.95;;;4.55;;
11598;SDS011;5855;48.840;9.188;2023-06-10T07:23:20;4.55;;;4.15;;
11598;SDS011;5855;48.840;9.188;2023-06-10T07:25:47;4.70;;;4.30;;
11598;SDS011;5855;48.840;9.188;2023-06-10T07:28:14;4.82;;;4.43;;
11598;SDS011;5855;48.840;9.188;2023-06-10T07:30:40;4.63;;;4.25;;
11598;SDS011;5855;48.840;9.188;2023-06-10T07:33:07;5.10;;;4.53;;
11598;SDS011;5855;48.840;9.188;2023-06-10T07:35:36;5.20;;;4.80;;
11598;SDS011;5855;48.840;9.188;2023-06-10T07:38:04;4.55;;;4.20;;
11598;SDS011;5855;48.840;9.188;2023-06-10T07:40:31;4.57;;;4.18;;
11598;SDS011;5855;48.840;9.188;2023-06-10T07:42:57;4.95;;;4.53;;
11598;SDS011;5855;48.840;9.188;2023-06-10T07:45:24;4.60;;;4.20;;
11598;SDS011;5855;48.840;9.188;2023-06-10T07:47:51;4.63;;;4.25;;
11598;SDS011;5855;48.840;9.188;2023-06-10T07:50:18;4.53;;;4.22;;
11598;SDS011;5855;48.840;9.188;2023-06-10T07:52:45;4.35;;;3.95;;
11598;SDS011;5855;48.840;9.188;2023-06-10T07:55:13;4.60;;;4.25;;
11598;SDS011;5855;48.840;9.188;2023-06-10T07:57:40;4.30;;;3.92;;
11598;SDS011;5855;48.840;9.188;2023-06-10T08:00:07;5.15;;;4.20;;
11598;SDS011;5855;48.840;9.188;2023-06-10T08:02:34;5.10;;;4.10;;
11598;SDS011;5855;48.840;9.188;2023-06-10T08:05:02;4.68;;;4.28;;
11598;SDS011;5855;48.840;9.188;2023-06-10T08:07:30;5.45;;;4.65;;
11598;SDS011;5855;48.840;9.188;2023-06-10T08:09:57;8.48;;;4.45;;
11598;SDS011;5855;48.840;9.188;2023-06-10T08:12:25;5.72;;;4.88;;
11598;SDS011;5855;48.840;9.188;2023-06-10T08:14:52;4.85;;;4.45;;
11598;SDS011;5855;48.840;9.188;2023-06-10T08:17:20;5.13;;;4.05;;
11598;SDS011;5855;48.840;9.188;2023-06-10T08:19:46;4.68;;;4.28;;
11598;SDS011;5855;48.840;9.188;2023-06-10T08:22:13;4.80;;;4.40;;
11598;SDS011;5855;48.840;9.188;2023-06-10T08:24:41;4.38;;;3.88;;
11598;SDS011;5855;48.840;9.188;2023-06-10T08:27:07;4.53;;;4.13;;
11598;SDS011;5855;48.840;9.188;2023-06-10T08:29:36;5.90;;;4.18;;
11598;SDS011;5855;48.840;9.188;2023-06-10T08:32:03;4.60;;;4.20;;
11598;SDS011;5855;48.840;9.188;2023-06-10T08:34:32;6.20;;;4.43;;
11598;SDS011;5855;48.840;9.188;2023-06-10T08:37:00;4.85;;;4.43;;
11598;SDS011;5855;48.840;9.188;2023-06-10T08:39:27;4.20;;;3.90;;
11598;SDS011;5855;48.840;9.188;2023-06-10T08:42:00;5.30;;;4.53;;
11598;SDS011;5855;48.840;9.188;2023-06-10T08:44:33;4.57;;;4.18;;
11598;SDS011;5855;48.840;9.188;2023-06-10T08:47:05;5.00;;;4.15;;
11598;SDS011;5855;48.840;9.188;2023-06-10T08:49:38;4.40;;;4.00;;
11598;SDS011;5855;48.840;9.188;2023-06-10T08:52:07;5.57;;;3.70;;
11598;SDS011;5855;48.840;9.188;2023-06-10T08:54:35;4.10;;;3.80;;
11598;SDS011;5855;48.840;9.188;2023-06-10T08:57:05;4.47;;;4.10;;
11598;SDS011;5855;48.840;9.188;2023-06-10T08:59:32;5.15;;;3.88;;
11598;SDS011;5855;48.840;9.188;2023-06-10T09:02:00;5.72;;;4.00;;
11598;SDS011;5855;48.840;9.188;2023-06-10T09:04:30;4.18;;;3.88;;
11598;SDS011;5855;48.840;9.188;2023-06-10T09:06:57;5.00;;;3.67;;
11598;SDS011;5855;48.840;9.188;2023-06-10T09:09:24;4.75;;;3.67;;
11598;SDS011;5855;48.840;9.188;2023-06-10T09:11:53;4.05;;;3.75;;
11598;SDS011;5855;48.840;9.188;2023-06-10T09:14:19;3.80;;;3.50;;
11598;SDS011;5855;48.840;9.188;2023-06-10T09:16:46;3.95;;;3.63;;
11598;SDS011;5855;48.840;9.188;2023-06-10T09:19:15;3.38;;;3.15;;
11598;SDS011;5855;48.840;9.188;2023-06-10T09:21:42;4.55;;;3.80;;
11598;SDS011;5855;48.840;9.188;2023-06-10T09:24:09;3.88;;;3.30;;
11598;SDS011;5855;48.840;9.188;2023-06-10T09:26:36;3.58;;;3.28;;
11598;SDS011;5855;48.840;9.188;2023-06-10T09:29:03;3.10;;;2.80;;
11598;SDS011;5855;48.840;9.188;2023-06-10T09:31:31;3.60;;;3.05;;
11598;SDS011;5855;48.840;9.188;2023-06-10T09:34:07;3.83;;;3.42;;
11598;SDS011;5855;48.840;9.188;2023-06-10T09:36:36;3.63;;;3.33;;
11598;SDS011;5855;48.840;9.188;2023-06-10T09:39:04;3.28;;;3.05;;
11598;SDS011;5855;48.840;9.188;2023-06-10T09:41:40;4.43;;;2.72;;
11598;SDS011;5855;48.840;9.188;2023-06-10T09:44:10;3.05;;;2.78;;
11598;SDS011;5855;48.840;9.188;2023-06-10T09:46:39;4.60;;;3.10;;
11598;SDS011;5855;48.840;9.188;2023-06-10T09:49:07;7.68;;;3.17;;
11598;SDS011;5855;48.840;9.188;2023-06-10T09:51:34;3.25;;;2.97;;
11598;SDS011;5855;48.840;9.188;2023-06-10T09:54:03;3.35;;;2.92;;
11598;SDS011;5855;48.840;9.188;2023-06-10T09:56:33;3.83;;;3.10;;
11598;SDS011;5855;48.840;9.188;2023-06-10T09:59:01;3.60;;;3.08;;
11598;SDS011;5855;48.840;9.188;2023-06-10T10:01:31;3.70;;;3.08;;
11598;SDS011;5855;48.840;9.188;2023-06-10T10:03:58;3.17;;;2.90;;
11598;SDS011;5855;48.840;9.188;2023-06-10T10:06:26;3.42;;;3.08;;
11598;SDS011;5855;48.840;9.188;2023-06-10T10:08:53;3.33;;;3.10;;
11598;SDS011;5855;48.840;9.188;2023-06-10T10:11:22;5.63;;;3.13;;
11598;SDS011;5855;48.840;9.188;2023-06-10T10:13:51;3.42;;;3.00;;
11598;SDS011;5855;48.840;9.188;2023-06-10T10:16:19;3.60;;;3.30;;
11598;SDS011;5855;48.840;9.188;2023-06-10T10:18:49;5.50;;;3.10;;
11598;SDS011;5855;48.840;9.188;2023-06-10T10:21:21;3.65;;;3.08;;
11598;SDS011;5855;48.840;9.188;2023-06-10T10:23:52;3.17;;;2.88;;
11598;SDS011;5855;48.840;9.188;2023-06-10T10:26:21;3.35;;;3.05;;
11598;SDS011;5855;48.840;9.188;2023-06-10T10:28:53;3.40;;;3.10;;
11598;SDS011;5855;48.840;9.188;2023-06-10T10:31:29;3.40;;;3.10;;
11598;SDS011;5855;48.840;9.188;2023-06-10T10:34:01;3.47;;;3.15;;
11598;SDS011;5855;48.840;9.188;2023-06-10T10:36:32;3.35;;;3.00;;
11598;SDS011;5855;48.840;9.188;2023-06-10T10:38:59;4.07;;;3.30;;
11598;SDS011;5855;48.840;9.188;2023-06-10T10:41:29;3.13;;;2.90;;
11598;SDS011;5855;48.840;9.188;2023-06-10T10:43:57;3.47;;;3.00;;
11598;SDS011;5855;48.840;9.188;2023-06-10T10:46:25;3.55;;;3.15;;
11598;SDS011;5855;48.840;9.188;2023-06-10T10:48:52;3.42;;;3.15;;
11598;SDS011;5855;48.840;9.188;2023-06-10T10:51:20;3.08;;;2.80;;
11598;SDS011;5855;48.840;9.188;2023-06-10T10:56:40;2.90;;;2.70;;
11598;SDS011;5855;48.840;9.188;2023-06-10T10:59:43;3.50;;;3.30;;
11598;SDS011;5855;48.840;9.188;2023-06-10T11:02:34;2.83;;;2.63;;
11598;SDS011;5855;48.840;9.188;2023-06-10T11:05:08;2.90;;;2.60;;
11598;SDS011;5855;48.840;9.188;2023-06-10T11:07:36;2.92;;;2.60;;
11598;SDS011;5855;48.840;9.188;2023-06-10T11:10:05;2.95;;;2.75;;
11598;SDS011;5855;48.840;9.188;2023-06-10T11:12:51;2.75;;;2.55;;
11598;SDS011;5855;48.840;9.188;2023-06-10T11:15:19;2.75;;;2.50;;
11598;SDS011;5855;48.840;9.188;2023-06-10T11:20:44;3.10;;;2.80;;
11598;SDS011;5855;48.840;9.188;2023-06-10T11:23:24;3.22;;;2.83;;
11598;SDS011;5855;48.840;9.188;2023-06-10T11:25:51;4.57;;;3.10;;
11598;SDS011;5855;48.840;9.188;2023-06-10T11:28:42;2.75;;;2.55;;
11598;SDS011;5855;48.840;9.188;2023-06-10T11:31:24;2.70;;;2.50;;
11598;SDS011;5855;48.840;9.188;2023-06-10T11:33:52;3.10;;;2.80;;
11598;SDS011;5855;48.840;9.188;2023-06-10T11:36:19;2.55;;;2.35;;
11598;SDS011;5855;48.840;9.188;2023-06-10T11:38:46;2.60;;;2.40;;
11598;SDS011;5855;48.840;9.188;2023-06-10T11:41:14;2.70;;;2.50;;
11598;SDS011;5855;48.840;9.188;2023-06-10T11:43:42;2.90;;;2.42;;
11598;SDS011;5855;48.840;9.188;2023-06-10T11:46:09;3.42;;;2.33;;
11598;SDS011;5855;48.840;9.188;2023-06-10T11:48:36;3.00;;;2.60;;
11598;SDS011;5855;48.840;9.188;2023-06-10T11:51:05;2.67;;;2.47;;
11598;SDS011;5855;48.840;9.188;2023-06-10T11:53:32;2.47;;;2.30;;
11598;SDS011;5855;48.840;9.188;2023-06-10T11:55:59;3.08;;;2.35;;
11598;SDS011;5855;48.840;9.188;2023-06-10T11:58:26;2.40;;;2.20;;
11598;SDS011;5855;48.840;9.188;2023-06-10T12:00:55;2.33;;;2.20;;
11598;SDS011;5855;48.840;9.188;2023-06-10T12:03:23;2.20;;;2.10;;
11598;SDS011;5855;48.840;9.188;2023-06-10T12:05:57;2.42;;;2.22;;
11598;SDS011;5855;48.840;9.188;2023-06-10T12:08:24;2.40;;;2.20;;
11598;SDS011;5855;48.840;9.188;2023-06-10T12:10:52;2.97;;;2.40;;
11598;SDS011;5855;48.840;9.188;2023-06-10T12:13:19;2.95;;;2.00;;
11598;SDS011;5855;48.840;9.188;2023-06-10T12:15:46;2.20;;;2.00;;
11598;SDS011;5855;48.840;9.188;2023-06-10T12:18:18;2.40;;;2.10;;
11598;SDS011;5855;48.840;9.188;2023-06-10T12:20:45;2.33;;;2.13;;
11598;SDS011;5855;48.840;9.188;2023-06-10T12:23:14;2.40;;;2.20;;
11598;SDS011;5855;48.840;9.188;2023-06-10T12:25:49;1.92;;;1.80;;
11598;SDS011;5855;48.840;9.188;2023-06-10T12:28:17;2.50;;;2.30;;
11598;SDS011;5855;48.840;9.188;2023-06-10T12:30:47;2.35;;;2.20;;
11598;SDS011;5855;48.840;9.188;2023-06-10T12:33:18;2.63;;;2.17;;
11598;SDS011;5855;48.840;9.188;2023-06-10T12:35:49;2.10;;;2.00;;
11598;SDS011;5855;48.840;9.188;2023-06-10T12:38:20;2.38;;;2.28;;
11598;SDS011;5855;48.840;9.188;2023-06-10T12:40:49;2.42;;;2.22;;
11598;SDS011;5855;48.840;9.188;2023-06-10T12:43:19;2.20;;;2.10;;
11598;SDS011;5855;48.840;9.188;2023-06-10T12:45:46;2.10;;;1.90;;
11598;SDS011;5855;48.840;9.188;2023-06-10T12:48:17;2.35;;;2.13;;
11598;SDS011;5855;48.840;9.188;2023-06-10T12:50:50;2.00;;;1.90;;
11598;SDS011;5855;48.840;9.188;2023-06-10T12:53:18;3.17;;;2.00;;
11598;SDS011;5855;48.840;9.188;2023-06-10T12:55:46;2.03;;;1.75;;
11598;SDS011;5855;48.840;9.188;2023-06-10T12:58:13;2.42;;;2.05;;
11598;SDS011;5855;48.840;9.188;2023-06-10T13:00:40;1.98;;;1.88;;
11598;SDS011;5855;48.840;9.188;2023-06-10T13:03:07;2.00;;;1.90;;
11598;SDS011;5855;48.840;9.188;2023-06-10T13:05:37;2.55;;;2.10;;
11598;SDS011;5855;48.840;9.188;2023-06-10T13:08:04;2.00;;;1.90;;
11598;SDS011;5855;48.840;9.188;2023-06-10T13:10:32;1.90;;;1.70;;
11598;SDS011;5855;48.840;9.188;2023-06-10T13:12:59;2.38;;;2.00;;
11598;SDS011;5855;48.840;9.188;2023-06-10T13:15:27;1.80;;;1.70;;
11598;SDS011;5855;48.840;9.188;2023-06-10T13:17:54;1.95;;;1.80;;
11598;SDS011;5855;48.840;9.188;2023-06-10T13:20:22;3.13;;;2.03;;
11598;SDS011;5855;48.840;9.188;2023-06-10T13:22:50;2.28;;;1.85;;
11598;SDS011;5855;48.840;9.188;2023-06-10T13:25:17;2.30;;;1.85;;
11598;SDS011;5855;48.840;9.188;2023-06-10T13:27:44;1.90;;;1.80;;
11598;SDS011;5855;48.840;9.188;2023-06-10T13:30:11;2.42;;;2.00;;
11598;SDS011;5855;48.840;9.188;2023-06-10T13:32:38;2.22;;;1.70;;
11598;SDS011;5855;48.840;9.188;2023-06-10T13:35:05;1.90;;;1.80;;
11598;SDS011;5855;48.840;9.188;2023-06-10T13:37:33;1.60;;;1.50;;
11598;SDS011;5855;48.840;9.188;2023-06-10T13:40:01;2.20;;;2.00;;
11598;SDS011;5855;48.840;9.188;2023-06-10T13:42:28;1.60;;;1.50;;
11598;SDS011;5855;48.840;9.188;2023-06-10T13:44:55;1.92;;;1.83;;
11598;SDS011;5855;48.840;9.188;2023-06-10T13:47:24;2.53;;;1.80;;
11598;SDS011;5855;48.840;9.188;2023-06-10T13:49:51;1.83;;;1.63;;
11598;SDS011;5855;48.840;9.188;2023-06-10T13:52:18;2.58;;;1.88;;
11598;SDS011;5855;48.840;9.188;2023-06-10T13:54:45;1.52;;;1.42;;
11598;SDS011;5855;48.840;9.188;2023-06-10T13:57:13;1.60;;;1.50;;
11598;SDS011;5855;48.840;9.188;2023-06-10T13:59:40;1.85;;;1.73;;
11598;SDS011;5855;48.840;9.188;2023-06-10T14:02:07;2.00;;;1.80;;
11598;SDS011;5855;48.840;9.188;2023-06-10T14:04:34;1.58;;;1.48;;
11598;SDS011;5855;48.840;9.188;2023-06-10T14:07:01;3.15;;;1.92;;
11598;SDS011;5855;48.840;9.188;2023-06-10T14:09:28;1.70;;;1.60;;
11598;SDS011;5855;48.840;9.188;2023-06-10T14:11:55;2.30;;;1.80;;
11598;SDS011;5855;48.840;9.188;2023-06-10T14:14:23;1.70;;;1.60;;
11598;SDS011;5855;48.840;9.188;2023-06-10T14:16:50;1.70;;;1.60;;
11598;SDS011;5855;48.840;9.188;2023-06-10T14:19:17;1.65;;;1.55;;
11598;SDS011;5855;48.840;9.188;2023-06-10T14:21:43;2.40;;;1.50;;
11598;SDS011;5855;48.840;9.188;2023-06-10T14:24:10;1.83;;;1.73;;
11598;SDS011;5855;48.840;9.188;2023-06-10T14:26:37;1.80;;;1.67;;
11598;SDS011;5855;48.840;9.188;2023-06-10T14:29:04;1.80;;;1.70;;
11598;SDS011;5855;48.840;9.188;2023-06-10T14:31:33;1.60;;;1.50;;
11598;SDS011;5855;48.840;9.188;2023-06-10T14:34:00;1.70;;;1.60;;
11598;SDS011;5855;48.840;9.188;2023-06-10T14:36:27;2.13;;;1.60;;
11598;SDS011;5855;48.840;9.188;2023-06-10T14:38:53;1.95;;;1.60;;
11598;SDS011;5855;48.840;9.188;2023-06-10T14:41:22;2.22;;;1.80;;
11598;SDS011;5855;48.840;9.188;2023-06-10T14:43:48;1.77;;;1.67;;
11598;SDS011;5855;48.840;9.188;2023-06-10T14:46:15;1.67;;;1.58;;
11598;SDS011;5855;48.840;9.188;2023-06-10T14:48:43;1.60;;;1.50;;
11598;SDS011;5855;48.840;9.188;2023-06-10T14:51:10;1.88;;;1.58;;
11598;SDS011;5855;48.840;9.188;2023-06-10T14:53:37;1.83;;;1.50;;
11598;SDS011;5855;48.840;9.188;2023-06-10T14:56:04;1.70;;;1.60;;
11598;SDS011;5855;48.840;9.188;2023-06-10T14:58:31;1.88;;;1.60;;
11598;SDS011;5855;48.840;9.188;2023-06-10T15:00:58;1.80;;;1.70;;
11598;SDS011;5855;48.840;9.188;2023-06-10T15:03:25;1.60;;;1.50;;
11598;SDS011;5855;48.840;9.188;2023-06-10T15:05:53;1.60;;;1.50;;
11598;SDS011;5855;48.840;9.188;2023-06-10T15:08:20;1.60;;;1.50;;
11598;SDS011;5855;48.840;9.188;2023-06-10T15:10:47;1.60;;;1.50;;